Long Prairie, MN

6:56 PM CDT on June 22, 2017 (GMT -0500)
Long Prairie

Weather History for K14Y - January, 2014

Change the Weather History Date:

Monday, January 6, 2014

  Actual Average (KLXL) Record (KLXL)
Temperature  
Mean Temperature -20 °F -  
Max Temperature -14 °F 18 °F 45 °F (1933)
Min Temperature -25 °F 0 °F -30 °F (1988)
Degree Days  
Heating Degree Days 86    
Moisture  
Dew Point -28 °F    
Average Humidity 68    
Maximum Humidity 76    
Minimum Humidity 58    
Precipitation  
Precipitation 0.00 in - - ()
Sea Level Pressure  
Sea Level Pressure 30.19 in    
Wind  
Wind Speed 11 mph (West)    
Max Wind Speed 18 mph    
Max Gust Speed 24 mph    
Visibility 10 miles    
Events      
Averages and records for this station are not official NWS values.
T = Trace of Precipitation, MM = Missing Value Source: NWS Daily Summary

Daily Weather History Graph

Daily Weather History Graph

Search for Another Location

Airport or City:

Trip Planner

Search our weather history database for the weather conditions in past years. The results will help you decide how hot, cold, wet, or windy it might be!

Date:

Astronomy

Jan. 06, 2014 Rise Set
Actual Time 8:00 AM CST 4:50 PM CST
Civil Twilight 7:26 AM CST 5:24 PM CST
Nautical Twilight 6:49 AM CST 6:02 PM CST
Astronomical Twilight 6:12 AM CST 6:38 PM CST
Moon 10:56 AM CST (1/6) 11:47 PM CST (1/6)
Length of Visible Light 9h 57m
Length of Day
8h 49m
Waxing Crescent, 35% of the Moon is Illuminated
Jan 6
Waxing Crescent
Jan 7
First Quarter
Jan 15
Full
Jan 23
Last Quarter
Jan 30
New

Hourly Weather History & Observations

Time (CST) Temp. Windchill Dew Point Humidity Pressure Visibility Wind Dir Wind Speed Gust Speed Precip Events Conditions
12:03 AM -23.8 °F -46.9 °F -31.0 °F 69% 30.27 in 10.0 mi WNW 11.5 mph - N/A   Clear
12:24 AM -23.8 °F -48.0 °F -31.0 °F 69% 30.27 in 10.0 mi West 12.7 mph 16.1 mph N/A   Clear
12:43 AM -23.8 °F -49.8 °F -32.8 °F 63% 30.26 in 10.0 mi West 15.0 mph 21.9 mph N/A   Clear
1:03 AM -25.6 °F -49.2 °F -32.8 °F 69% 30.25 in 10.0 mi West 11.5 mph - N/A   Clear
1:23 AM -25.6 °F -49.2 °F -32.8 °F 69% 30.25 in 10.0 mi West 11.5 mph - N/A   Clear
1:44 AM -25.6 °F -49.2 °F -32.8 °F 69% 30.25 in 10.0 mi West 11.5 mph - N/A   Clear
2:04 AM -25.6 °F -46.8 °F -32.8 °F 69% 30.26 in 10.0 mi West 9.2 mph - N/A   Clear
2:23 AM -25.6 °F -45.4 °F -31.0 °F 76% 30.26 in 10.0 mi West 8.1 mph - N/A   Clear
2:43 AM -25.6 °F -50.2 °F -31.0 °F 76% 30.26 in 7.0 mi West 12.7 mph - N/A   Scattered Clouds
3:03 AM -23.8 °F -43.2 °F -31.0 °F 69% 30.25 in 10.0 mi West 8.1 mph - N/A   Mostly Cloudy
3:23 AM -23.8 °F -46.9 °F -31.0 °F 69% 30.25 in 10.0 mi West 11.5 mph 17.3 mph N/A   Mostly Cloudy
3:44 AM -23.8 °F -46.9 °F -31.0 °F 69% 30.25 in 10.0 mi West 11.5 mph - N/A   Clear
4:03 AM -23.8 °F -48.9 °F -31.0 °F 69% 30.24 in 10.0 mi West 13.8 mph 18.4 mph N/A   Clear
4:23 AM -23.8 °F -48.0 °F -31.0 °F 69% 30.24 in 10.0 mi WNW 12.7 mph - N/A   Clear
4:44 AM -23.8 °F -48.0 °F -31.0 °F 69% 30.25 in 10.0 mi West 12.7 mph 18.4 mph N/A   Clear
5:03 AM -23.8 °F -45.8 °F -31.0 °F 69% 30.24 in 10.0 mi West 10.4 mph 18.4 mph N/A   Clear
5:23 AM -23.8 °F -44.5 °F -31.0 °F 69% 30.24 in 10.0 mi West 9.2 mph 16.1 mph N/A   Clear
5:43 AM -23.8 °F -48.0 °F -31.0 °F 69% 30.24 in 10.0 mi West 12.7 mph - N/A   Mostly Cloudy
6:04 AM -23.8 °F -46.9 °F -31.0 °F 69% 30.23 in 5.0 mi West 11.5 mph - N/A   Haze
6:24 AM -23.8 °F -45.8 °F -29.2 °F 76% 30.24 in 10.0 mi West 10.4 mph - N/A   Scattered Clouds
6:44 AM -22.0 °F -45.7 °F -29.2 °F 69% 30.23 in 10.0 mi West 12.7 mph 18.4 mph N/A   Scattered Clouds
7:03 AM -22.0 °F -45.7 °F -29.2 °F 69% 30.23 in 7.0 mi West 12.7 mph 18.4 mph N/A   Mostly Cloudy
7:23 AM -23.8 °F -46.9 °F -29.2 °F 76% 30.23 in 7.0 mi West 11.5 mph 17.3 mph N/A   Mostly Cloudy
7:44 AM -23.8 °F -44.5 °F -31.0 °F 69% 30.23 in 10.0 mi West 9.2 mph - N/A   Scattered Clouds
8:04 AM -23.8 °F -45.8 °F -31.0 °F 69% 30.23 in 10.0 mi West 10.4 mph 16.1 mph N/A   Mostly Cloudy
8:23 AM -23.8 °F -48.0 °F -31.0 °F 69% 30.23 in 10.0 mi West 12.7 mph 17.3 mph N/A   Mostly Cloudy
8:43 AM -23.8 °F -46.9 °F -31.0 °F 69% 30.23 in 10.0 mi West 11.5 mph 16.1 mph N/A   Scattered Clouds
9:03 AM -23.8 °F -45.8 °F -31.0 °F 69% 30.23 in 10.0 mi West 10.4 mph 18.4 mph N/A   Clear
9:24 AM -23.8 °F -48.9 °F -31.0 °F 69% 30.23 in 10.0 mi West 13.8 mph 17.3 mph N/A   Scattered Clouds
9:44 AM -23.8 °F -49.8 °F -31.0 °F 69% 30.23 in 10.0 mi West 15.0 mph - N/A   Scattered Clouds
10:03 AM -23.8 °F -49.8 °F -31.0 °F 69% 30.23 in 7.0 mi West 15.0 mph 23.0 mph N/A   Scattered Clouds
10:23 AM -22.0 °F -48.4 °F -31.0 °F 63% 30.22 in 10.0 mi West 16.1 mph 24.2 mph N/A   Scattered Clouds
10:43 AM -22.0 °F -48.4 °F -29.2 °F 69% 30.22 in 7.0 mi West 16.1 mph 23.0 mph N/A   Mostly Cloudy
11:03 AM -20.2 °F -47.5 °F -29.2 °F 63% 30.21 in 10.0 mi West 18.4 mph 24.2 mph N/A   Overcast
11:24 AM -22.0 °F -47.5 °F -29.2 °F 69% 30.21 in 10.0 mi West 15.0 mph 20.7 mph N/A   Overcast
11:44 AM -18.4 °F -42.9 °F -27.4 °F 63% 30.20 in 10.0 mi West 15.0 mph 20.7 mph N/A   Mostly Cloudy
12:03 PM -18.4 °F -41.2 °F -27.4 °F 63% 30.18 in 10.0 mi West 12.7 mph 24.2 mph N/A   Scattered Clouds
12:23 PM -18.4 °F -42.1 °F -27.4 °F 63% 30.19 in 10.0 mi West 13.8 mph 19.6 mph N/A   Mostly Cloudy
12:44 PM -18.4 °F -40.2 °F -27.4 °F 63% 30.18 in 10.0 mi West 11.5 mph 16.1 mph N/A   Overcast
1:04 PM -18.4 °F -40.2 °F -27.4 °F 63% 30.18 in 10.0 mi West 11.5 mph 19.6 mph N/A   Overcast
1:24 PM -18.4 °F -42.9 °F -27.4 °F 63% 30.17 in 10.0 mi West 15.0 mph 18.4 mph N/A   Overcast
1:43 PM -16.6 °F -41.4 °F -27.4 °F 58% 30.17 in 10.0 mi West 16.1 mph 21.9 mph N/A   Mostly Cloudy
2:03 PM -16.6 °F -34.4 °F -27.4 °F 58% 30.17 in 10.0 mi West 8.1 mph 12.7 mph N/A   Clear
2:23 PM -16.6 °F -38.9 °F -27.4 °F 58% 30.17 in 10.0 mi West 12.7 mph - N/A   Clear
2:44 PM -16.6 °F -37.9 °F -27.4 °F 58% 30.16 in 10.0 mi West 11.5 mph 18.4 mph N/A   Clear
3:04 PM -16.6 °F -40.6 °F -27.4 °F 58% 30.16 in 10.0 mi West 15.0 mph 19.6 mph N/A   Clear
3:23 PM -16.6 °F -38.9 °F -25.6 °F 64% 30.17 in 10.0 mi West 12.7 mph 19.6 mph N/A   Clear
3:44 PM -16.6 °F -40.6 °F -27.4 °F 58% 30.17 in 10.0 mi West 15.0 mph 19.6 mph N/A   Clear
4:04 PM -18.4 °F -40.2 °F -25.6 °F 70% 30.17 in 10.0 mi West 11.5 mph 19.6 mph N/A   Mostly Cloudy
4:23 PM -18.4 °F -40.2 °F -27.4 °F 63% 30.17 in 10.0 mi West 11.5 mph 20.7 mph N/A   Scattered Clouds
4:44 PM -18.4 °F -39.1 °F -27.4 °F 63% 30.17 in 10.0 mi West 10.4 mph 17.3 mph N/A   Mostly Cloudy
5:04 PM -18.4 °F -37.9 °F -27.4 °F 63% 30.17 in 10.0 mi WSW 9.2 mph - N/A   Unknown
5:23 PM -18.4 °F -36.6 °F -27.4 °F 63% 30.16 in 10.0 mi WSW 8.1 mph - N/A   Clear
5:43 PM -20.2 °F -41.3 °F -27.4 °F 69% 30.16 in 10.0 mi West 10.4 mph - N/A   Clear
6:03 PM -20.2 °F -38.8 °F -27.4 °F 69% 30.14 in 10.0 mi West 8.1 mph - N/A   Clear
6:23 PM -20.2 °F -38.8 °F -27.4 °F 69% 30.15 in 10.0 mi WSW 8.1 mph - N/A   Clear
6:43 PM -20.2 °F -38.8 °F -27.4 °F 69% 30.14 in 10.0 mi West 8.1 mph - N/A   Clear
7:03 PM -20.2 °F -40.1 °F -27.4 °F 69% 30.14 in 10.0 mi WSW 9.2 mph - N/A   Clear
7:23 PM -20.2 °F -38.8 °F -25.6 °F 76% 30.13 in 10.0 mi West 8.1 mph - N/A   Clear
7:44 PM -20.2 °F -38.8 °F -25.6 °F 76% 30.13 in 10.0 mi WSW 8.1 mph - N/A   Clear
8:03 PM -20.2 °F -35.5 °F -25.6 °F 76% 30.13 in 10.0 mi WSW 5.8 mph - N/A   Clear
8:23 PM -20.2 °F -35.5 °F -25.6 °F 76% 30.13 in 10.0 mi WSW 5.8 mph - N/A   Clear
8:44 PM -20.2 °F -37.3 °F -25.6 °F 76% 30.13 in 10.0 mi West 6.9 mph - N/A   Clear
9:03 PM -20.2 °F -35.5 °F -25.6 °F 76% 30.12 in 10.0 mi West 5.8 mph - N/A   Clear
9:24 PM -18.4 °F -35.1 °F -25.6 °F 70% 30.11 in 10.0 mi WSW 6.9 mph - N/A   Clear
9:43 PM -18.4 °F -37.9 °F -23.8 °F 76% 30.12 in 10.0 mi West 9.2 mph - N/A   Clear
10:03 PM -18.4 °F -39.1 °F -23.8 °F 76% 30.11 in 10.0 mi West 10.4 mph 16.1 mph N/A   Clear
10:24 PM -18.4 °F -37.9 °F -23.8 °F 76% 30.10 in 10.0 mi West 9.2 mph - N/A   Clear
10:44 PM -16.6 °F -32.9 °F -23.8 °F 70% 30.09 in 10.0 mi West 6.9 mph - N/A   Clear
11:03 PM -16.6 °F -34.4 °F -22.0 °F 76% 30.08 in 10.0 mi WSW 8.1 mph - N/A   Clear
11:24 PM -16.6 °F -36.8 °F -22.0 °F 76% 30.08 in 10.0 mi WSW 10.4 mph - N/A   Clear
11:44 PM -14.8 °F -30.8 °F -22.0 °F 70% 30.07 in 10.0 mi WSW 6.9 mph - N/A   Clear